sensor_id;sensor_type;location;lat;lon;timestamp;pressure;altitude;pressure_sealevel;temperature;humidity
10852;BME280;5479;52.046;6.314;2022-08-19T00:01:56;101225.84;;;18.48;100.00
10852;BME280;5479;52.046;6.314;2022-08-19T00:04:28;101216.94;;;18.48;100.00
10852;BME280;5479;52.046;6.314;2022-08-19T00:07:01;101222.66;;;18.43;100.00
10852;BME280;5479;52.046;6.314;2022-08-19T00:09:33;101208.69;;;18.40;100.00
10852;BME280;5479;52.046;6.314;2022-08-19T00:12:02;101220.72;;;18.45;100.00
10852;BME280;5479;52.046;6.314;2022-08-19T00:14:31;101220.38;;;18.39;100.00
10852;BME280;5479;52.046;6.314;2022-08-19T00:17:00;101224.06;;;18.38;100.00
10852;BME280;5479;52.046;6.314;2022-08-19T00:19:29;101220.88;;;18.33;100.00
10852;BME280;5479;52.046;6.314;2022-08-19T00:21:58;101219.19;;;18.32;100.00
10852;BME280;5479;52.046;6.314;2022-08-19T00:24:27;101225.06;;;18.26;100.00
10852;BME280;5479;52.046;6.314;2022-08-19T00:26:56;101215.97;;;18.17;100.00
10852;BME280;5479;52.046;6.314;2022-08-19T00:29:25;101208.06;;;18.16;100.00
10852;BME280;5479;52.046;6.314;2022-08-19T00:31:54;101215.41;;;18.14;100.00
10852;BME280;5479;52.046;6.314;2022-08-19T00:34:23;101222.44;;;18.15;100.00
10852;BME280;5479;52.046;6.314;2022-08-19T00:36:56;101215.06;;;18.07;100.00
10852;BME280;5479;52.046;6.314;2022-08-19T00:39:26;101215.91;;;18.07;100.00
10852;BME280;5479;52.046;6.314;2022-08-19T00:41:54;101230.78;;;18.00;100.00
10852;BME280;5479;52.046;6.314;2022-08-19T00:44:26;101229.69;;;18.03;100.00
10852;BME280;5479;52.046;6.314;2022-08-19T00:46:57;101231.63;;;18.01;100.00
10852;BME280;5479;52.046;6.314;2022-08-19T00:49:28;101224.00;;;17.96;100.00
10852;BME280;5479;52.046;6.314;2022-08-19T00:52:00;101225.22;;;17.92;100.00
10852;BME280;5479;52.046;6.314;2022-08-19T00:54:30;101226.47;;;17.88;100.00
10852;BME280;5479;52.046;6.314;2022-08-19T00:56:59;101222.31;;;17.84;100.00
10852;BME280;5479;52.046;6.314;2022-08-19T00:59:41;101226.72;;;17.85;100.00
10852;BME280;5479;52.046;6.314;2022-08-19T01:02:09;101229.28;;;17.87;100.00
10852;BME280;5479;52.046;6.314;2022-08-19T01:04:38;101237.19;;;17.88;100.00
10852;BME280;5479;52.046;6.314;2022-08-19T01:07:06;101229.53;;;17.84;100.00
10852;BME280;5479;52.046;6.314;2022-08-19T01:09:35;101219.91;;;17.81;100.00
10852;BME280;5479;52.046;6.314;2022-08-19T01:12:03;101221.59;;;17.82;100.00
10852;BME280;5479;52.046;6.314;2022-08-19T01:14:32;101229.56;;;17.73;100.00
10852;BME280;5479;52.046;6.314;2022-08-19T01:17:02;101221.91;;;17.68;100.00
10852;BME280;5479;52.046;6.314;2022-08-19T01:19:33;101229.09;;;17.68;100.00
10852;BME280;5479;52.046;6.314;2022-08-19T01:22:06;101226.50;;;17.66;100.00
10852;BME280;5479;52.046;6.314;2022-08-19T01:24:38;101226.25;;;17.69;100.00
10852;BME280;5479;52.046;6.314;2022-08-19T01:27:07;101234.69;;;17.65;100.00
10852;BME280;5479;52.046;6.314;2022-08-19T01:29:40;101223.75;;;17.57;100.00
10852;BME280;5479;52.046;6.314;2022-08-19T01:32:10;101223.84;;;17.55;100.00
10852;BME280;5479;52.046;6.314;2022-08-19T01:34:39;101222.19;;;17.54;100.00
10852;BME280;5479;52.046;6.314;2022-08-19T01:37:09;101211.22;;;17.57;100.00
10852;BME280;5479;52.046;6.314;2022-08-19T01:39:47;101218.50;;;17.55;100.00
10852;BME280;5479;52.046;6.314;2022-08-19T01:42:15;101226.03;;;17.50;100.00
10852;BME280;5479;52.046;6.314;2022-08-19T01:44:43;101223.75;;;17.45;100.00
10852;BME280;5479;52.046;6.314;2022-08-19T01:47:11;101226.03;;;17.39;100.00
10852;BME280;5479;52.046;6.314;2022-08-19T01:49:39;101230.91;;;17.34;100.00
10852;BME280;5479;52.046;6.314;2022-08-19T01:52:07;101227.78;;;17.29;100.00
10852;BME280;5479;52.046;6.314;2022-08-19T01:54:35;101233.59;;;17.23;100.00
10852;BME280;5479;52.046;6.314;2022-08-19T01:57:07;101227.44;;;17.22;100.00
10852;BME280;5479;52.046;6.314;2022-08-19T01:59:37;101224.63;;;17.24;100.00
10852;BME280;5479;52.046;6.314;2022-08-19T02:02:05;101224.00;;;17.20;100.00
10852;BME280;5479;52.046;6.314;2022-08-19T02:04:34;101230.69;;;17.15;100.00
10852;BME280;5479;52.046;6.314;2022-08-19T02:07:02;101223.16;;;17.09;100.00
10852;BME280;5479;52.046;6.314;2022-08-19T02:09:30;101226.94;;;17.06;100.00
10852;BME280;5479;52.046;6.314;2022-08-19T02:12:02;101229.72;;;17.05;100.00
10852;BME280;5479;52.046;6.314;2022-08-19T02:14:33;101237.13;;;17.12;100.00
10852;BME280;5479;52.046;6.314;2022-08-19T02:17:01;101229.00;;;17.03;100.00
10852;BME280;5479;52.046;6.314;2022-08-19T02:19:29;101232.53;;;17.03;100.00
10852;BME280;5479;52.046;6.314;2022-08-19T02:21:59;101233.16;;;17.07;100.00
10852;BME280;5479;52.046;6.314;2022-08-19T02:24:28;101235.06;;;17.05;100.00
10852;BME280;5479;52.046;6.314;2022-08-19T02:26:57;101243.72;;;16.97;100.00
10852;BME280;5479;52.046;6.314;2022-08-19T02:29:26;101230.47;;;16.96;100.00
10852;BME280;5479;52.046;6.314;2022-08-19T02:31:56;101228.75;;;16.95;100.00
10852;BME280;5479;52.046;6.314;2022-08-19T02:34:24;101226.56;;;17.00;100.00
10852;BME280;5479;52.046;6.314;2022-08-19T02:36:52;101227.28;;;17.02;100.00
10852;BME280;5479;52.046;6.314;2022-08-19T02:39:20;101232.16;;;17.08;100.00
10852;BME280;5479;52.046;6.314;2022-08-19T02:41:47;101236.78;;;17.06;100.00
10852;BME280;5479;52.046;6.314;2022-08-19T02:44:15;101233.72;;;16.99;100.00
10852;BME280;5479;52.046;6.314;2022-08-19T02:46:45;101232.16;;;16.97;100.00
10852;BME280;5479;52.046;6.314;2022-08-19T02:49:15;101242.13;;;16.95;100.00
10852;BME280;5479;52.046;6.314;2022-08-19T02:51:44;101232.91;;;16.99;100.00
10852;BME280;5479;52.046;6.314;2022-08-19T02:54:13;101234.84;;;16.97;100.00
10852;BME280;5479;52.046;6.314;2022-08-19T02:56:43;101243.84;;;16.96;100.00
10852;BME280;5479;52.046;6.314;2022-08-19T02:59:11;101248.22;;;16.97;100.00
10852;BME280;5479;52.046;6.314;2022-08-19T03:01:41;101249.69;;;17.01;100.00
10852;BME280;5479;52.046;6.314;2022-08-19T03:04:12;101241.41;;;16.93;100.00
10852;BME280;5479;52.046;6.314;2022-08-19T03:06:45;101249.41;;;16.81;100.00
10852;BME280;5479;52.046;6.314;2022-08-19T03:09:14;101253.03;;;16.69;100.00
10852;BME280;5479;52.046;6.314;2022-08-19T03:11:43;101248.06;;;16.65;100.00
10852;BME280;5479;52.046;6.314;2022-08-19T03:14:12;101252.78;;;16.61;100.00
10852;BME280;5479;52.046;6.314;2022-08-19T03:16:42;101245.75;;;16.60;100.00
10852;BME280;5479;52.046;6.314;2022-08-19T03:19:11;101245.84;;;16.59;100.00
10852;BME280;5479;52.046;6.314;2022-08-19T03:21:39;101244.16;;;16.58;100.00
10852;BME280;5479;52.046;6.314;2022-08-19T03:24:09;101243.47;;;16.43;100.00
10852;BME280;5479;52.046;6.314;2022-08-19T03:26:38;101239.03;;;16.20;100.00
10852;BME280;5479;52.046;6.314;2022-08-19T03:29:10;101241.69;;;16.20;100.00
10852;BME280;5479;52.046;6.314;2022-08-19T03:31:39;101236.72;;;16.26;100.00
10852;BME280;5479;52.046;6.314;2022-08-19T03:34:07;101239.06;;;16.31;100.00
10852;BME280;5479;52.046;6.314;2022-08-19T03:36:39;101246.97;;;16.33;100.00
10852;BME280;5479;52.046;6.314;2022-08-19T03:39:06;101246.38;;;16.29;100.00
10852;BME280;5479;52.046;6.314;2022-08-19T03:41:39;101243.34;;;16.34;100.00
10852;BME280;5479;52.046;6.314;2022-08-19T03:44:07;101244.50;;;16.29;100.00
10852;BME280;5479;52.046;6.314;2022-08-19T03:46:36;101244.75;;;16.26;100.00
10852;BME280;5479;52.046;6.314;2022-08-19T03:49:04;101250.44;;;16.22;100.00
10852;BME280;5479;52.046;6.314;2022-08-19T03:51:37;101249.03;;;16.29;100.00
10852;BME280;5479;52.046;6.314;2022-08-19T03:54:08;101246.09;;;16.32;100.00
10852;BME280;5479;52.046;6.314;2022-08-19T03:56:38;101249.03;;;16.29;100.00
10852;BME280;5479;52.046;6.314;2022-08-19T03:59:11;101246.97;;;16.33;100.00
10852;BME280;5479;52.046;6.314;2022-08-19T04:01:40;101243.44;;;16.32;100.00
10852;BME280;5479;52.046;6.314;2022-08-19T04:04:08;101245.88;;;16.35;100.00
10852;BME280;5479;52.046;6.314;2022-08-19T04:06:38;101243.56;;;16.30;100.00
10852;BME280;5479;52.046;6.314;2022-08-19T04:09:08;101237.72;;;16.25;100.00
10852;BME280;5479;52.046;6.314;2022-08-19T04:11:41;101239.66;;;16.23;100.00
10852;BME280;5479;52.046;6.314;2022-08-19T04:14:16;101236.34;;;16.20;100.00
10852;BME280;5479;52.046;6.314;2022-08-19T04:16:46;101236.59;;;16.17;100.00
10852;BME280;5479;52.046;6.314;2022-08-19T04:19:16;101234.38;;;16.11;100.00
10852;BME280;5479;52.046;6.314;2022-08-19T04:21:48;101234.72;;;16.06;100.00
10852;BME280;5479;52.046;6.314;2022-08-19T04:24:17;101243.09;;;16.02;100.00
10852;BME280;5479;52.046;6.314;2022-08-19T04:26:47;101239.44;;;16.03;100.00
10852;BME280;5479;52.046;6.314;2022-08-19T04:29:19;101229.59;;;16.03;100.00
10852;BME280;5479;52.046;6.314;2022-08-19T04:31:52;101227.50;;;15.96;100.00
10852;BME280;5479;52.046;6.314;2022-08-19T04:34:23;101229.97;;;15.99;100.00
10852;BME280;5479;52.046;6.314;2022-08-19T04:36:54;101230.91;;;15.98;100.00
10852;BME280;5479;52.046;6.314;2022-08-19T04:39:26;101230.47;;;16.04;100.00
10852;BME280;5479;52.046;6.314;2022-08-19T04:42:17;101230.34;;;16.05;100.00
10852;BME280;5479;52.046;6.314;2022-08-19T04:45:08;101225.34;;;16.01;100.00
10852;BME280;5479;52.046;6.314;2022-08-19T04:47:40;101228.88;;;16.01;100.00
10852;BME280;5479;52.046;6.314;2022-08-19T04:50:14;101221.22;;;16.08;100.00
10852;BME280;5479;52.046;6.314;2022-08-19T04:52:43;101219.56;;;16.07;100.00
10852;BME280;5479;52.046;6.314;2022-08-19T04:55:12;101223.19;;;16.06;100.00
10852;BME280;5479;52.046;6.314;2022-08-19T04:57:42;101239.94;;;16.08;100.00
10852;BME280;5479;52.046;6.314;2022-08-19T05:00:11;101241.31;;;15.90;100.00
10852;BME280;5479;52.046;6.314;2022-08-19T05:02:43;101244.00;;;15.90;100.00
10852;BME280;5479;52.046;6.314;2022-08-19T05:05:11;101249.97;;;15.93;100.00
10852;BME280;5479;52.046;6.314;2022-08-19T05:07:39;101243.09;;;16.02;100.00
10852;BME280;5479;52.046;6.314;2022-08-19T05:10:09;101239.91;;;15.97;100.00
10852;BME280;5479;52.046;6.314;2022-08-19T05:12:38;101239.91;;;15.97;100.00
10852;BME280;5479;52.046;6.314;2022-08-19T05:15:08;101245.84;;;16.00;100.00
10852;BME280;5479;52.046;6.314;2022-08-19T05:17:38;101247.56;;;16.01;100.00
10852;BME280;5479;52.046;6.314;2022-08-19T05:20:28;101245.00;;;16.00;100.00
10852;BME280;5479;52.046;6.314;2022-08-19T05:23:15;101247.34;;;16.04;100.00
10852;BME280;5479;52.046;6.314;2022-08-19T05:25:43;101244.81;;;16.14;100.00
10852;BME280;5479;52.046;6.314;2022-08-19T05:28:12;101239.97;;;16.19;100.00
10852;BME280;5479;52.046;6.314;2022-08-19T05:30:41;101240.75;;;16.21;100.00
10852;BME280;5479;52.046;6.314;2022-08-19T05:33:11;101238.66;;;16.24;100.00
10852;BME280;5479;52.046;6.314;2022-08-19T05:35:39;101234.81;;;16.28;100.00
10852;BME280;5479;52.046;6.314;2022-08-19T05:38:12;101238.81;;;16.23;100.00
10852;BME280;5479;52.046;6.314;2022-08-19T05:40:41;101242.25;;;16.36;100.00
10852;BME280;5479;52.046;6.314;2022-08-19T05:43:15;101240.38;;;16.25;100.00
10852;BME280;5479;52.046;6.314;2022-08-19T05:45:45;101245.41;;;16.41;100.00
10852;BME280;5479;52.046;6.314;2022-08-19T05:48:13;101245.41;;;16.41;100.00
10852;BME280;5479;52.046;6.314;2022-08-19T05:50:47;101242.69;;;16.30;100.00
10852;BME280;5479;52.046;6.314;2022-08-19T05:53:19;101248.91;;;16.30;100.00
10852;BME280;5479;52.046;6.314;2022-08-19T05:55:46;101253.66;;;16.38;100.00
10852;BME280;5479;52.046;6.314;2022-08-19T05:58:17;101252.22;;;16.34;100.00
10852;BME280;5479;52.046;6.314;2022-08-19T06:00:46;101249.22;;;16.50;100.00
10852;BME280;5479;52.046;6.314;2022-08-19T06:03:38;101250.22;;;16.60;100.00
10852;BME280;5479;52.046;6.314;2022-08-19T06:06:09;101243.81;;;16.73;100.00
10852;BME280;5479;52.046;6.314;2022-08-19T06:08:38;101236.16;;;16.80;100.00
10852;BME280;5479;52.046;6.314;2022-08-19T06:11:14;101241.66;;;16.89;100.00
10852;BME280;5479;52.046;6.314;2022-08-19T06:13:44;101240.94;;;16.87;100.00
10852;BME280;5479;52.046;6.314;2022-08-19T06:16:18;101241.28;;;17.05;100.00
10852;BME280;5479;52.046;6.314;2022-08-19T06:18:50;101245.53;;;17.30;100.00
10852;BME280;5479;52.046;6.314;2022-08-19T06:21:20;101238.56;;;17.61;100.00
10852;BME280;5479;52.046;6.314;2022-08-19T06:23:51;101243.28;;;17.79;100.00
10852;BME280;5479;52.046;6.314;2022-08-19T06:26:20;101239.81;;;17.99;100.00
10852;BME280;5479;52.046;6.314;2022-08-19T06:28:50;101244.59;;;18.17;100.00
10852;BME280;5479;52.046;6.314;2022-08-19T06:31:22;101249.50;;;18.12;100.00
10852;BME280;5479;52.046;6.314;2022-08-19T06:33:50;101244.19;;;18.32;100.00
10852;BME280;5479;52.046;6.314;2022-08-19T06:36:23;101241.47;;;18.64;100.00
10852;BME280;5479;52.046;6.314;2022-08-19T06:38:53;101244.91;;;18.96;100.00
10852;BME280;5479;52.046;6.314;2022-08-19T06:41:23;101243.72;;;19.19;100.00
10852;BME280;5479;52.046;6.314;2022-08-19T06:43:52;101234.38;;;19.14;100.00
10852;BME280;5479;52.046;6.314;2022-08-19T06:46:25;101240.88;;;19.42;100.00
10852;BME280;5479;52.046;6.314;2022-08-19T06:48:54;101242.09;;;19.87;100.00
10852;BME280;5479;52.046;6.314;2022-08-19T06:51:22;101245.09;;;20.41;100.00
10852;BME280;5479;52.046;6.314;2022-08-19T06:53:52;101240.81;;;21.24;100.00
10852;BME280;5479;52.046;6.314;2022-08-19T06:56:22;101247.03;;;22.93;100.00
10852;BME280;5479;52.046;6.314;2022-08-19T06:58:51;101243.16;;;24.45;100.00
10852;BME280;5479;52.046;6.314;2022-08-19T07:01:19;101250.88;;;25.59;100.00
10852;BME280;5479;52.046;6.314;2022-08-19T07:03:49;101249.13;;;26.65;97.48
10852;BME280;5479;52.046;6.314;2022-08-19T07:06:19;101248.66;;;27.28;89.53
10852;BME280;5479;52.046;6.314;2022-08-19T07:08:50;101249.44;;;27.73;84.48
10852;BME280;5479;52.046;6.314;2022-08-19T07:11:27;101257.25;;;28.33;79.56
10852;BME280;5479;52.046;6.314;2022-08-19T07:13:55;101243.84;;;28.80;74.91
10852;BME280;5479;52.046;6.314;2022-08-19T07:16:23;101254.03;;;29.27;69.07
10852;BME280;5479;52.046;6.314;2022-08-19T07:18:54;101243.59;;;29.37;69.16
10852;BME280;5479;52.046;6.314;2022-08-19T07:21:26;101250.78;;;29.51;68.28
10852;BME280;5479;52.046;6.314;2022-08-19T07:23:58;101250.66;;;29.66;65.72
10852;BME280;5479;52.046;6.314;2022-08-19T07:26:29;101250.09;;;29.83;65.40
10852;BME280;5479;52.046;6.314;2022-08-19T07:28:59;101245.22;;;30.59;62.07
10852;BME280;5479;52.046;6.314;2022-08-19T07:31:29;101253.59;;;30.84;58.79
10852;BME280;5479;52.046;6.314;2022-08-19T07:34:00;101254.66;;;30.89;58.51
10852;BME280;5479;52.046;6.314;2022-08-19T07:36:29;101253.00;;;30.82;58.32
10852;BME280;5479;52.046;6.314;2022-08-19T07:39:00;101244.13;;;30.86;58.47
10852;BME280;5479;52.046;6.314;2022-08-19T07:41:30;101248.13;;;31.10;58.58
10852;BME280;5479;52.046;6.314;2022-08-19T07:43:59;101242.94;;;31.59;55.56
10852;BME280;5479;52.046;6.314;2022-08-19T07:46:30;101253.03;;;32.03;53.64
10852;BME280;5479;52.046;6.314;2022-08-19T07:49:02;101257.16;;;32.19;52.61
10852;BME280;5479;52.046;6.314;2022-08-19T07:51:30;101255.81;;;32.59;51.04
10852;BME280;5479;52.046;6.314;2022-08-19T07:54:01;101256.22;;;32.63;49.48
10852;BME280;5479;52.046;6.314;2022-08-19T07:56:29;101267.06;;;33.01;49.22
10852;BME280;5479;52.046;6.314;2022-08-19T07:58:57;101253.69;;;33.29;47.66
10852;BME280;5479;52.046;6.314;2022-08-19T08:01:26;101260.91;;;33.41;46.65
10852;BME280;5479;52.046;6.314;2022-08-19T08:03:56;101265.91;;;32.90;47.00
10852;BME280;5479;52.046;6.314;2022-08-19T08:06:43;101262.94;;;32.36;49.58
10852;BME280;5479;52.046;6.314;2022-08-19T08:09:36;101265.66;;;32.67;48.63
10852;BME280;5479;52.046;6.314;2022-08-19T08:12:08;101272.59;;;32.94;47.44
10852;BME280;5479;52.046;6.314;2022-08-19T08:14:39;101273.41;;;32.14;50.10
10852;BME280;5479;52.046;6.314;2022-08-19T08:17:11;101276.16;;;32.76;48.85
10852;BME280;5479;52.046;6.314;2022-08-19T08:19:40;101278.06;;;33.19;47.79
10852;BME280;5479;52.046;6.314;2022-08-19T08:22:14;101278.69;;;32.96;47.55
10852;BME280;5479;52.046;6.314;2022-08-19T08:25:04;101275.41;;;32.00;50.71
10852;BME280;5479;52.046;6.314;2022-08-19T08:27:35;101279.88;;;31.88;51.81
10852;BME280;5479;52.046;6.314;2022-08-19T08:30:07;101285.31;;;32.64;48.41
10852;BME280;5479;52.046;6.314;2022-08-19T08:32:37;101293.50;;;33.20;47.36
10852;BME280;5479;52.046;6.314;2022-08-19T08:35:07;101287.31;;;33.42;44.48
10852;BME280;5479;52.046;6.314;2022-08-19T08:37:38;101291.38;;;33.58;43.81
10852;BME280;5479;52.046;6.314;2022-08-19T08:40:20;101287.53;;;32.17;47.03
10852;BME280;5479;52.046;6.314;2022-08-19T08:42:53;101293.06;;;32.42;48.09
10852;BME280;5479;52.046;6.314;2022-08-19T08:45:25;101286.31;;;33.19;46.25
10852;BME280;5479;52.046;6.314;2022-08-19T08:47:57;101293.84;;;33.05;45.27
10852;BME280;5479;52.046;6.314;2022-08-19T08:50:34;101281.31;;;32.66;46.25
10852;BME280;5479;52.046;6.314;2022-08-19T08:53:06;101291.25;;;33.10;45.29
10852;BME280;5479;52.046;6.314;2022-08-19T08:55:36;101280.69;;;33.68;44.40
10852;BME280;5479;52.046;6.314;2022-08-19T08:58:10;101282.00;;;33.95;43.70
10852;BME280;5479;52.046;6.314;2022-08-19T09:00:45;101282.13;;;33.89;43.04
10852;BME280;5479;52.046;6.314;2022-08-19T09:03:17;101283.72;;;33.42;45.02
10852;BME280;5479;52.046;6.314;2022-08-19T09:05:55;101277.50;;;34.01;43.32
10852;BME280;5479;52.046;6.314;2022-08-19T09:08:35;101283.81;;;33.72;42.51
10852;BME280;5479;52.046;6.314;2022-08-19T09:11:08;101279.16;;;34.20;39.97
10852;BME280;5479;52.046;6.314;2022-08-19T09:13:44;101264.59;;;33.72;40.45
10852;BME280;5479;52.046;6.314;2022-08-19T09:16:19;101265.78;;;33.39;41.89
10852;BME280;5479;52.046;6.314;2022-08-19T09:18:54;101271.16;;;33.34;42.01
10852;BME280;5479;52.046;6.314;2022-08-19T09:21:25;101265.34;;;33.79;41.20
10852;BME280;5479;52.046;6.314;2022-08-19T09:23:55;101267.94;;;33.19;42.04
10852;BME280;5479;52.046;6.314;2022-08-19T09:26:25;101282.56;;;33.86;39.96
10852;BME280;5479;52.046;6.314;2022-08-19T09:28:54;101283.16;;;33.15;41.53
10852;BME280;5479;52.046;6.314;2022-08-19T09:31:26;101283.66;;;32.63;42.30
10852;BME280;5479;52.046;6.314;2022-08-19T09:33:55;101280.72;;;31.89;45.66
10852;BME280;5479;52.046;6.314;2022-08-19T09:36:26;101274.13;;;32.03;43.95
10852;BME280;5479;52.046;6.314;2022-08-19T09:38:56;101275.13;;;32.96;43.45
10852;BME280;5479;52.046;6.314;2022-08-19T09:41:25;101274.41;;;32.82;42.10
10852;BME280;5479;52.046;6.314;2022-08-19T09:43:57;101279.44;;;31.14;45.17
10852;BME280;5479;52.046;6.314;2022-08-19T09:46:27;101270.59;;;30.27;46.63
10852;BME280;5479;52.046;6.314;2022-08-19T09:48:57;101280.31;;;31.01;46.12
10852;BME280;5479;52.046;6.314;2022-08-19T09:51:28;101269.84;;;32.13;41.40
10852;BME280;5479;52.046;6.314;2022-08-19T09:54:01;101259.16;;;32.37;40.56
10852;BME280;5479;52.046;6.314;2022-08-19T09:56:29;101268.63;;;32.90;39.70
10852;BME280;5479;52.046;6.314;2022-08-19T09:58:58;101267.59;;;34.00;38.61
10852;BME280;5479;52.046;6.314;2022-08-19T10:01:29;101272.84;;;35.07;35.21
10852;BME280;5479;52.046;6.314;2022-08-19T10:03:59;101273.66;;;34.20;36.22
10852;BME280;5479;52.046;6.314;2022-08-19T10:06:29;101275.19;;;33.68;35.83
10852;BME280;5479;52.046;6.314;2022-08-19T10:09:00;101280.63;;;32.96;35.87
10852;BME280;5479;52.046;6.314;2022-08-19T10:11:33;101267.72;;;34.05;34.60
10852;BME280;5479;52.046;6.314;2022-08-19T10:14:03;101265.44;;;34.32;35.04
10852;BME280;5479;52.046;6.314;2022-08-19T10:16:33;101269.72;;;33.98;34.25
10852;BME280;5479;52.046;6.314;2022-08-19T10:19:03;101268.25;;;33.84;35.87
10852;BME280;5479;52.046;6.314;2022-08-19T10:21:32;101263.84;;;34.66;34.78
10852;BME280;5479;52.046;6.314;2022-08-19T10:24:04;101267.44;;;34.13;34.68
10852;BME280;5479;52.046;6.314;2022-08-19T10:26:34;101267.06;;;33.01;36.43
10852;BME280;5479;52.046;6.314;2022-08-19T10:29:04;101261.72;;;33.96;35.48
10852;BME280;5479;52.046;6.314;2022-08-19T10:31:33;101261.22;;;34.59;33.81
10852;BME280;5479;52.046;6.314;2022-08-19T10:34:02;101266.97;;;34.16;34.27
10852;BME280;5479;52.046;6.314;2022-08-19T10:36:31;101265.41;;;34.20;33.89
10852;BME280;5479;52.046;6.314;2022-08-19T10:39:07;101248.03;;;33.78;33.46
10852;BME280;5479;52.046;6.314;2022-08-19T10:41:38;101270.13;;;33.47;34.62
10852;BME280;5479;52.046;6.314;2022-08-19T10:44:11;101262.94;;;33.71;34.38
10852;BME280;5479;52.046;6.314;2022-08-19T10:46:41;101254.53;;;34.25;34.24
10852;BME280;5479;52.046;6.314;2022-08-19T10:49:11;101259.19;;;35.01;33.58
10852;BME280;5479;52.046;6.314;2022-08-19T10:51:41;101253.13;;;33.75;35.34
10852;BME280;5479;52.046;6.314;2022-08-19T10:54:27;101253.16;;;34.34;35.21
10852;BME280;5479;52.046;6.314;2022-08-19T10:57:09;101255.13;;;33.13;36.74
10852;BME280;5479;52.046;6.314;2022-08-19T10:59:38;101255.28;;;33.36;37.00
10852;BME280;5479;52.046;6.314;2022-08-19T11:02:08;101245.56;;;34.83;33.02
10852;BME280;5479;52.046;6.314;2022-08-19T11:04:37;101242.34;;;34.74;33.18
10852;BME280;5479;52.046;6.314;2022-08-19T11:07:06;101256.78;;;33.87;36.69
10852;BME280;5479;52.046;6.314;2022-08-19T11:09:40;101255.69;;;32.72;39.54
10852;BME280;5479;52.046;6.314;2022-08-19T11:12:09;101253.78;;;33.22;39.75
10852;BME280;5479;52.046;6.314;2022-08-19T11:14:40;101244.25;;;33.00;40.48
10852;BME280;5479;52.046;6.314;2022-08-19T11:17:08;101243.16;;;33.26;40.61
10852;BME280;5479;52.046;6.314;2022-08-19T11:19:40;101253.19;;;31.71;43.58
10852;BME280;5479;52.046;6.314;2022-08-19T11:22:09;101252.84;;;32.05;41.93
10852;BME280;5479;52.046;6.314;2022-08-19T11:24:39;101261.38;;;30.80;44.42
10852;BME280;5479;52.046;6.314;2022-08-19T11:27:10;101259.50;;;31.00;44.58
10852;BME280;5479;52.046;6.314;2022-08-19T11:29:40;101251.63;;;30.06;48.34
10852;BME280;5479;52.046;6.314;2022-08-19T11:32:10;101251.31;;;30.41;47.72
10852;BME280;5479;52.046;6.314;2022-08-19T11:34:39;101256.34;;;30.64;47.51
10852;BME280;5479;52.046;6.314;2022-08-19T11:37:07;101250.16;;;30.10;47.72
10852;BME280;5479;52.046;6.314;2022-08-19T11:39:36;101256.28;;;31.30;42.50
10852;BME280;5479;52.046;6.314;2022-08-19T11:42:11;101257.56;;;31.14;42.57
10852;BME280;5479;52.046;6.314;2022-08-19T11:44:57;101256.28;;;30.12;46.58
10852;BME280;5479;52.046;6.314;2022-08-19T11:47:25;101263.28;;;29.26;49.52
10852;BME280;5479;52.046;6.314;2022-08-19T11:49:53;101257.81;;;29.67;47.23
10852;BME280;5479;52.046;6.314;2022-08-19T11:52:21;101260.97;;;30.70;44.07
10852;BME280;5479;52.046;6.314;2022-08-19T11:54:51;101244.56;;;31.03;41.94
10852;BME280;5479;52.046;6.314;2022-08-19T11:57:22;101250.78;;;31.87;38.89
10852;BME280;5479;52.046;6.314;2022-08-19T11:59:51;101243.00;;;31.84;38.66
10852;BME280;5479;52.046;6.314;2022-08-19T12:02:20;101248.72;;;32.20;39.75
10852;BME280;5479;52.046;6.314;2022-08-19T12:04:48;101247.28;;;31.10;41.88
10852;BME280;5479;52.046;6.314;2022-08-19T12:07:16;101246.41;;;30.11;42.00
10852;BME280;5479;52.046;6.314;2022-08-19T12:09:45;101244.59;;;30.57;40.96
10852;BME280;5479;52.046;6.314;2022-08-19T12:12:14;101251.69;;;30.71;40.59
10852;BME280;5479;52.046;6.314;2022-08-19T12:14:44;101250.41;;;31.20;39.60
10852;BME280;5479;52.046;6.314;2022-08-19T12:17:13;101240.03;;;31.48;38.46
10852;BME280;5479;52.046;6.314;2022-08-19T12:19:41;101242.72;;;31.61;38.82
10852;BME280;5479;52.046;6.314;2022-08-19T12:22:11;101236.97;;;30.85;39.08
10852;BME280;5479;52.046;6.314;2022-08-19T12:24:39;101240.69;;;29.99;41.26
10852;BME280;5479;52.046;6.314;2022-08-19T12:27:08;101249.69;;;29.39;43.66
10852;BME280;5479;52.046;6.314;2022-08-19T12:29:35;101245.16;;;30.33;41.84
10852;BME280;5479;52.046;6.314;2022-08-19T12:32:05;101245.78;;;30.22;42.22
10852;BME280;5479;52.046;6.314;2022-08-19T12:34:35;101241.66;;;30.39;41.84
10852;BME280;5479;52.046;6.314;2022-08-19T12:37:06;101241.84;;;30.44;41.30
10852;BME280;5479;52.046;6.314;2022-08-19T12:39:35;101243.50;;;29.65;42.59
10852;BME280;5479;52.046;6.314;2022-08-19T12:42:04;101235.13;;;29.66;43.75
10852;BME280;5479;52.046;6.314;2022-08-19T12:44:34;101245.25;;;29.04;46.43
10852;BME280;5479;52.046;6.314;2022-08-19T12:47:02;101234.19;;;29.94;45.35
10852;BME280;5479;52.046;6.314;2022-08-19T12:49:33;101233.81;;;30.29;44.42
10852;BME280;5479;52.046;6.314;2022-08-19T12:52:04;101242.06;;;30.49;43.62
10852;BME280;5479;52.046;6.314;2022-08-19T12:54:32;101231.31;;;30.61;44.04
10852;BME280;5479;52.046;6.314;2022-08-19T12:57:04;101237.84;;;30.66;44.45
10852;BME280;5479;52.046;6.314;2022-08-19T12:59:34;101226.91;;;30.53;43.79
10852;BME280;5479;52.046;6.314;2022-08-19T13:02:03;101222.50;;;30.52;42.35
10852;BME280;5479;52.046;6.314;2022-08-19T13:04:37;101226.50;;;30.43;43.60
10852;BME280;5479;52.046;6.314;2022-08-19T13:07:07;101221.59;;;30.06;45.09
10852;BME280;5479;52.046;6.314;2022-08-19T13:09:36;101215.94;;;30.14;45.44
10852;BME280;5479;52.046;6.314;2022-08-19T13:12:07;101213.41;;;30.32;45.15
10852;BME280;5479;52.046;6.314;2022-08-19T13:14:39;101213.41;;;30.32;45.12